createdAt,value
2022-08-26T00:02:10.225Z,53.98
2022-08-26T00:05:11.678Z,53.49
2022-08-26T00:08:15.395Z,54.12
2022-08-26T00:11:26.265Z,54.20
2022-08-26T00:14:30.133Z,54.96
2022-08-26T00:17:32.764Z,54.91
2022-08-26T00:20:34.879Z,54.85
2022-08-26T00:23:37.166Z,55.38
2022-08-26T00:26:39.258Z,55.29
2022-08-26T00:29:42.866Z,55.53
2022-08-26T00:32:44.572Z,55.43
2022-08-26T00:35:48.030Z,55.68
2022-08-26T00:38:50.011Z,56.16
2022-08-26T00:41:51.421Z,56.36
2022-08-26T00:44:53.782Z,56.64
2022-08-26T00:48:03.116Z,56.75
2022-08-26T00:51:29.672Z,56.76
2022-08-26T00:54:35.674Z,56.67
2022-08-26T00:57:37.806Z,56.87
2022-08-26T01:00:39.263Z,56.92
2022-08-26T01:03:41.944Z,57.62
2022-08-26T01:06:44.374Z,57.73
2022-08-26T01:09:46.322Z,57.46
2022-08-26T01:12:52.369Z,58.35
2022-08-26T01:15:57.384Z,58.20
2022-08-26T01:19:13.828Z,58.37
2022-08-26T01:22:50.288Z,58.45
2022-08-26T01:25:59.520Z,58.79
2022-08-26T01:29:05.257Z,59.45
2022-08-26T01:32:10.772Z,59.46
2022-08-26T01:35:12.217Z,59.62
2022-08-26T01:38:15.818Z,59.80
2022-08-26T01:41:20.008Z,59.85
2022-08-26T01:44:38.661Z,59.75
2022-08-26T01:47:42.564Z,59.64
2022-08-26T01:50:45.793Z,59.96
2022-08-26T01:53:47.472Z,60.42
2022-08-26T01:56:50.660Z,61.07
2022-08-26T01:59:56.357Z,60.83
2022-08-26T02:03:16.449Z,60.43
2022-08-26T02:06:19.681Z,60.46
2022-08-26T02:09:22.122Z,60.27
2022-08-26T02:12:25.775Z,61.77
2022-08-26T02:15:27.534Z,64.49
2022-08-26T02:18:33.048Z,65.65
2022-08-26T02:21:35.186Z,65.09
2022-08-26T02:24:54.318Z,64.79
2022-08-26T02:27:56.687Z,65.18
2022-08-26T02:30:58.134Z,65.20
2022-08-26T02:34:12.351Z,64.62
2022-08-26T02:37:14.440Z,64.24
2022-08-26T02:40:24.044Z,64.25
2022-08-26T02:43:31.637Z,63.72
2022-08-26T02:46:34.632Z,63.11
2022-08-26T02:49:41.932Z,63.14
2022-08-26T02:52:45.895Z,63.40
2022-08-26T02:55:49.416Z,64.07
2022-08-26T02:58:51.431Z,64.38
2022-08-26T03:01:56.111Z,65.34
2022-08-26T03:05:01.885Z,65.45
2022-08-26T03:08:04.194Z,66.00
2022-08-26T03:11:05.926Z,65.18
2022-08-26T03:14:07.916Z,66.04
2022-08-26T03:17:09.626Z,66.38
2022-08-26T03:20:11.692Z,66.13
2022-08-26T03:23:15.140Z,65.34
2022-08-26T03:26:16.837Z,65.55
2022-08-26T03:29:36.842Z,65.32
2022-08-26T03:32:39.134Z,65.74
2022-08-26T03:35:45.035Z,66.37
2022-08-26T03:38:46.496Z,66.42
2022-08-26T03:41:47.927Z,65.88
2022-08-26T03:44:49.905Z,65.34
2022-08-26T03:47:51.890Z,65.59
2022-08-26T03:50:54.493Z,65.82
2022-08-26T03:53:57.175Z,66.19
2022-08-26T03:56:58.706Z,66.78
2022-08-26T04:00:00.544Z,66.89
2022-08-26T04:03:02.042Z,67.05
2022-08-26T04:06:03.993Z,66.63
2022-08-26T04:09:13.292Z,65.80
2022-08-26T04:12:14.796Z,66.09
2022-08-26T04:15:17.776Z,66.37
2022-08-26T04:18:19.599Z,66.46
2022-08-26T04:21:21.417Z,66.69
2022-08-26T04:24:25.011Z,66.69
2022-08-26T04:27:26.516Z,66.84
2022-08-26T04:30:28.190Z,67.82
2022-08-26T04:33:32.549Z,68.11
2022-08-26T04:36:34.805Z,68.62
2022-08-26T04:39:37.212Z,68.61
2022-08-26T04:42:38.643Z,69.45
2022-08-26T04:45:41.537Z,69.42
2022-08-26T04:48:42.961Z,68.87
2022-08-26T04:51:44.389Z,68.72
2022-08-26T04:54:45.839Z,68.70
2022-08-26T04:57:47.453Z,68.40
2022-08-26T05:00:51.489Z,67.63
2022-08-26T05:03:52.942Z,67.70
2022-08-26T05:06:59.239Z,67.10
2022-08-26T05:10:04.679Z,66.97
2022-08-26T05:13:14.277Z,67.19
2022-08-26T05:16:17.278Z,66.89
2022-08-26T05:19:19.521Z,67.23
2022-08-26T05:22:21.284Z,66.43
2022-08-26T05:25:23.766Z,66.76
2022-08-26T05:28:30.052Z,66.09
2022-08-26T05:31:33.492Z,65.63
2022-08-26T05:34:34.972Z,66.89
2022-08-26T05:37:38.391Z,67.20
2022-08-26T05:40:42.964Z,66.49
2022-08-26T05:43:44.529Z,67.14
2022-08-26T05:46:46.054Z,65.91
2022-08-26T05:49:51.571Z,66.75
2022-08-26T05:52:53.255Z,66.30
2022-08-26T05:55:55.715Z,66.24
2022-08-26T05:58:58.373Z,66.01
2022-08-26T06:02:02.032Z,66.06
2022-08-26T06:05:03.656Z,66.74
2022-08-26T06:08:13.929Z,66.59
2022-08-26T06:11:19.048Z,66.37
2022-08-26T06:14:20.469Z,65.78
2022-08-26T06:17:21.919Z,67.41
2022-08-26T06:20:24.906Z,67.40
2022-08-26T06:23:48.358Z,67.91
2022-08-26T06:26:52.798Z,67.28
2022-08-26T06:29:54.692Z,66.88
2022-08-26T06:32:56.145Z,67.82
2022-08-26T06:35:58.378Z,67.67
2022-08-26T06:39:04.040Z,67.20
2022-08-26T06:42:06.177Z,66.25
2022-08-26T06:45:08.945Z,66.27
2022-08-26T06:48:10.870Z,66.43
2022-08-26T06:51:15.579Z,66.17
2022-08-26T06:54:17.624Z,65.71
2022-08-26T06:57:19.020Z,64.41
2022-08-26T07:00:21.650Z,63.03
2022-08-26T07:03:23.108Z,63.39
2022-08-26T07:06:25.580Z,63.32
2022-08-26T07:09:30.246Z,62.34
2022-08-26T07:12:31.933Z,61.20
2022-08-26T07:15:35.704Z,61.47
2022-08-26T07:18:38.015Z,60.68
2022-08-26T07:21:44.540Z,60.68
2022-08-26T07:24:45.988Z,61.49
2022-08-26T07:27:54.335Z,60.88
2022-08-26T07:30:56.027Z,59.76
2022-08-26T07:33:59.650Z,60.34
2022-08-26T07:37:02.161Z,58.74
2022-08-26T07:40:04.889Z,57.72
2022-08-26T07:43:07.730Z,58.35
2022-08-26T07:46:14.457Z,57.87
2022-08-26T07:49:18.943Z,57.09
2022-08-26T07:52:25.338Z,56.56
2022-08-26T07:55:28.888Z,55.47
2022-08-26T07:58:30.355Z,55.95
2022-08-26T08:01:33.109Z,55.02
2022-08-26T08:04:35.284Z,54.56
2022-08-26T08:07:44.964Z,54.58
2022-08-26T08:10:48.732Z,55.93
2022-08-26T08:13:55.968Z,57.05
2022-08-26T08:16:58.094Z,57.99
2022-08-26T08:19:59.942Z,56.50
2022-08-26T08:23:04.117Z,56.29
2022-08-26T08:26:09.058Z,55.66
2022-08-26T08:29:10.534Z,55.65
2022-08-26T08:32:11.968Z,54.03
2022-08-26T08:35:18.688Z,54.57
2022-08-26T08:38:20.208Z,55.20
2022-08-26T08:41:38.534Z,54.06
2022-08-26T08:44:44.472Z,55.05
2022-08-26T08:47:57.584Z,53.44
2022-08-26T08:51:16.609Z,53.33
2022-08-26T08:54:19.878Z,53.14
2022-08-26T08:57:53.810Z,53.01
2022-08-26T09:01:02.920Z,53.50
2022-08-26T09:04:32.526Z,53.24
2022-08-26T09:07:39.592Z,52.90
2022-08-26T09:10:46.990Z,51.64
2022-08-26T09:13:52.353Z,51.64
2022-08-26T09:17:10.187Z,51.18
2022-08-26T09:20:25.117Z,50.82
2022-08-26T09:23:27.048Z,51.05
2022-08-26T09:26:40.903Z,50.95
2022-08-26T09:29:44.729Z,49.89
2022-08-26T09:32:58.406Z,49.68
2022-08-26T09:36:22.861Z,49.29
2022-08-26T09:39:38.151Z,48.53
2022-08-26T09:42:39.641Z,48.99
2022-08-26T09:45:51.123Z,49.08
2022-08-26T09:48:54.416Z,48.46
2022-08-26T09:52:23.617Z,47.92
2022-08-26T09:55:26.160Z,47.72
2022-08-26T09:58:40.300Z,47.53
2022-08-26T10:01:44.983Z,46.95
2022-08-26T10:04:54.007Z,46.96
2022-08-26T10:07:56.845Z,46.95
2022-08-26T10:11:11.112Z,46.61
2022-08-26T10:14:28.601Z,46.67
2022-08-26T10:17:37.855Z,45.74
2022-08-26T10:20:50.140Z,45.96
2022-08-26T10:23:57.046Z,45.42
2022-08-26T10:27:10.463Z,44.88
2022-08-26T10:30:19.398Z,44.59
2022-08-26T10:33:21.082Z,44.15
2022-08-26T10:37:10.634Z,43.02
2022-08-26T10:40:13.755Z,42.42
2022-08-26T10:43:21.442Z,42.49
2022-08-26T10:46:28.413Z,42.73
2022-08-26T10:49:29.908Z,42.05
2022-08-26T10:52:57.841Z,42.45
2022-08-26T10:56:18.740Z,42.03
2022-08-26T10:59:53.405Z,41.22
2022-08-26T11:03:21.655Z,41.49
2022-08-26T11:06:27.826Z,41.67
2022-08-26T11:09:47.169Z,41.29
2022-08-26T11:13:01.660Z,41.01
2022-08-26T11:16:03.104Z,40.94
2022-08-26T11:19:09.408Z,40.81
2022-08-26T11:22:27.044Z,40.54
2022-08-26T11:25:30.909Z,39.96
2022-08-26T11:28:40.568Z,39.60
2022-08-26T11:31:48.821Z,39.17
2022-08-26T11:35:04.516Z,38.97
2022-08-26T11:38:29.499Z,39.55
2022-08-26T11:41:33.223Z,39.25
2022-08-26T11:44:41.190Z,39.03
2022-08-26T11:47:50.940Z,39.26
2022-08-26T11:51:05.086Z,38.56
2022-08-26T11:54:30.463Z,38.43
2022-08-26T11:57:46.907Z,38.02
2022-08-26T12:00:57.819Z,37.14
2022-08-26T12:04:00.392Z,37.31
2022-08-26T12:07:03.996Z,37.02
2022-08-26T12:10:10.766Z,36.55
2022-08-26T12:13:26.268Z,36.48
2022-08-26T12:16:31.191Z,35.68
2022-08-26T12:19:33.719Z,35.73
2022-08-26T12:22:36.033Z,35.31
2022-08-26T12:25:39.289Z,34.28
2022-08-26T12:29:20.004Z,34.46
2022-08-26T12:32:24.801Z,34.19
2022-08-26T12:35:28.644Z,34.49
2022-08-26T12:38:35.042Z,34.32
2022-08-26T12:41:52.977Z,34.80
2022-08-26T12:45:04.326Z,33.28
2022-08-26T12:48:08.805Z,33.48
2022-08-26T12:51:42.104Z,33.47
2022-08-26T12:55:02.398Z,33.83
2022-08-26T12:58:20.114Z,34.70
2022-08-26T13:01:23.427Z,35.14
2022-08-26T13:04:34.697Z,34.96
2022-08-26T13:07:36.537Z,35.04
2022-08-26T13:10:40.369Z,34.12
2022-08-26T13:13:41.846Z,32.51
2022-08-26T13:16:44.261Z,32.57
2022-08-26T13:19:45.845Z,32.28
2022-08-26T13:22:48.643Z,33.38
2022-08-26T13:26:00.079Z,32.74
2022-08-26T13:29:02.504Z,32.26
2022-08-26T13:32:06.400Z,32.97
2022-08-26T13:35:08.119Z,33.12
2022-08-26T13:38:14.702Z,33.20
2022-08-26T13:41:34.530Z,33.24
2022-08-26T13:44:38.802Z,33.56
2022-08-26T13:47:40.221Z,33.52
2022-08-26T13:50:41.859Z,33.66
2022-08-26T13:53:43.326Z,33.78
2022-08-26T13:56:45.072Z,32.71
2022-08-26T13:59:46.484Z,32.74
2022-08-26T14:02:48.457Z,31.06
2022-08-26T14:05:51.242Z,30.71
2022-08-26T14:08:52.749Z,29.88
2022-08-26T14:11:55.146Z,30.45
2022-08-26T14:14:57.922Z,29.67
2022-08-26T14:18:02.435Z,31.03
2022-08-26T14:21:06.870Z,30.66
2022-08-26T14:24:08.327Z,33.35
2022-08-26T14:27:10.715Z,33.54
2022-08-26T14:30:12.406Z,33.67
2022-08-26T14:33:15.013Z,33.57
2022-08-26T14:36:28.596Z,34.19
2022-08-26T14:39:30.160Z,33.77
2022-08-26T14:42:32.440Z,33.75
2022-08-26T14:48:46.679Z,32.90
2022-08-26T14:51:48.144Z,34.39
2022-08-26T14:54:52.784Z,36.28
2022-08-26T14:57:56.820Z,37.22
2022-08-26T15:00:58.275Z,38.62
2022-08-26T15:04:05.670Z,39.49
2022-08-26T15:07:07.744Z,39.23
2022-08-26T15:10:15.968Z,37.63
2022-08-26T15:13:17.424Z,38.08
2022-08-26T15:16:19.070Z,39.29
2022-08-26T15:19:22.545Z,40.11
2022-08-26T15:22:24.214Z,41.82
2022-08-26T15:25:31.024Z,42.33
2022-08-26T15:28:32.665Z,42.12
2022-08-26T15:31:34.407Z,43.08
2022-08-26T15:34:36.093Z,48.42
2022-08-26T15:37:38.828Z,46.53
2022-08-26T15:40:40.503Z,44.69
2022-08-26T15:43:42.126Z,45.91
2022-08-26T15:46:44.242Z,56.76
2022-08-26T15:49:45.863Z,67.37
2022-08-26T15:52:47.800Z,71.56
2022-08-26T15:55:49.996Z,68.55
2022-08-26T15:58:51.809Z,80.44
2022-08-26T16:01:59.375Z,80.78
2022-08-26T16:05:00.849Z,96.26
2022-08-26T16:08:03.465Z,100.00
2022-08-26T16:11:05.808Z,84.50
2022-08-26T16:14:07.744Z,93.85
2022-08-26T16:17:09.197Z,94.16
2022-08-26T16:20:10.826Z,100.00
2022-08-26T16:23:12.230Z,100.00
2022-08-26T16:26:20.446Z,100.00
2022-08-26T16:29:21.873Z,100.00
2022-08-26T16:32:23.280Z,100.00
2022-08-26T16:35:25.601Z,100.00
2022-08-26T16:38:27.089Z,100.00
2022-08-26T16:41:30.404Z,100.00
2022-08-26T16:44:44.127Z,100.00
2022-08-26T16:47:46.013Z,100.00
2022-08-26T16:50:47.473Z,100.00
2022-08-26T16:53:50.412Z,100.00
2022-08-26T16:56:51.837Z,100.00
2022-08-26T16:59:53.277Z,100.00
2022-08-26T17:02:56.213Z,100.00
2022-08-26T17:05:57.673Z,100.00
2022-08-26T17:08:59.086Z,95.96
2022-08-26T17:12:00.546Z,92.31
2022-08-26T17:15:03.664Z,93.82
2022-08-26T17:18:06.585Z,100.00
2022-08-26T17:21:12.268Z,99.72
2022-08-26T17:24:14.399Z,100.00
2022-08-26T17:27:15.827Z,100.00
2022-08-26T17:30:17.921Z,100.00
2022-08-26T17:33:24.677Z,100.00
2022-08-26T17:36:28.127Z,100.00
2022-08-26T17:39:29.862Z,100.00
2022-08-26T17:42:31.789Z,100.00
2022-08-26T17:45:33.549Z,100.00
2022-08-26T17:48:36.462Z,100.00
2022-08-26T17:51:37.946Z,100.00
2022-08-26T17:54:39.603Z,100.00
2022-08-26T17:57:42.310Z,100.00
2022-08-26T18:00:47.468Z,100.00
2022-08-26T18:03:49.590Z,100.00
2022-08-26T18:06:51.056Z,100.00
2022-08-26T18:09:52.500Z,100.00
2022-08-26T18:12:54.345Z,100.00
2022-08-26T18:15:55.897Z,100.00
2022-08-26T18:18:58.341Z,100.00
2022-08-26T18:21:59.829Z,100.00
2022-08-26T18:25:01.424Z,100.00
2022-08-26T18:28:03.073Z,100.00
2022-08-26T18:31:07.466Z,100.00
2022-08-26T18:34:12.782Z,100.00
2022-08-26T18:37:14.592Z,100.00
2022-08-26T18:40:17.366Z,100.00
2022-08-26T18:43:18.805Z,100.00
2022-08-26T18:46:24.780Z,100.00
2022-08-26T18:49:26.591Z,100.00
2022-08-26T18:52:28.161Z,100.00
2022-08-26T18:55:29.652Z,100.00
2022-08-26T18:58:31.108Z,100.00
2022-08-26T19:01:34.719Z,100.00
2022-08-26T19:04:38.431Z,100.00
2022-08-26T19:07:39.843Z,100.00
2022-08-26T19:10:41.724Z,100.00
2022-08-26T19:13:44.124Z,100.00
2022-08-26T19:16:47.845Z,100.00
2022-08-26T19:19:49.615Z,100.00
2022-08-26T19:22:51.081Z,100.00
2022-08-26T19:25:53.170Z,100.00
2022-08-26T19:28:54.795Z,100.00
2022-08-26T19:31:56.565Z,100.00
2022-08-26T19:34:58.010Z,100.00
2022-08-26T19:37:59.811Z,100.00
2022-08-26T19:41:01.256Z,100.00
2022-08-26T19:44:04.405Z,100.00
2022-08-26T19:47:08.884Z,100.00
2022-08-26T19:50:12.745Z,100.00
2022-08-26T19:53:15.294Z,100.00
2022-08-26T19:56:17.432Z,100.00
2022-08-26T19:59:18.988Z,100.00
2022-08-26T20:02:20.575Z,100.00
2022-08-26T20:05:23.775Z,100.00
2022-08-26T20:08:25.375Z,100.00
2022-08-26T20:11:27.121Z,100.00
2022-08-26T20:14:29.854Z,100.00
2022-08-26T20:17:32.298Z,100.00
2022-08-26T20:20:52.183Z,100.00
2022-08-26T20:24:00.514Z,100.00
2022-08-26T20:27:07.307Z,100.00
2022-08-26T20:30:10.267Z,100.00
2022-08-26T20:33:11.692Z,100.00
2022-08-26T20:36:15.015Z,100.00
2022-08-26T20:39:20.755Z,100.00
2022-08-26T20:42:22.201Z,100.00
2022-08-26T20:45:24.090Z,100.00
2022-08-26T20:48:25.526Z,100.00
2022-08-26T20:51:27.308Z,100.00
2022-08-26T20:54:29.501Z,100.00
2022-08-26T20:57:30.914Z,100.00
2022-08-26T21:00:32.366Z,100.00
2022-08-26T21:03:33.921Z,100.00
2022-08-26T21:06:36.247Z,100.00
2022-08-26T21:09:37.715Z,100.00
2022-08-26T21:12:39.828Z,100.00
2022-08-26T21:15:41.265Z,100.00
2022-08-26T21:18:42.706Z,100.00
2022-08-26T21:21:44.894Z,100.00
2022-08-26T21:24:46.498Z,100.00
2022-08-26T21:27:47.972Z,100.00
2022-08-26T21:30:49.416Z,100.00
2022-08-26T21:33:51.543Z,100.00
2022-08-26T21:36:52.958Z,100.00
2022-08-26T21:39:56.759Z,100.00
2022-08-26T21:42:58.200Z,100.00
2022-08-26T21:46:15.076Z,100.00
2022-08-26T21:49:16.697Z,100.00
2022-08-26T21:52:18.229Z,100.00
2022-08-26T21:55:19.669Z,100.00
2022-08-26T21:58:21.114Z,100.00
2022-08-26T22:01:25.197Z,100.00
2022-08-26T22:04:27.583Z,100.00
2022-08-26T22:07:29.165Z,100.00
2022-08-26T22:10:30.573Z,100.00
2022-08-26T22:13:34.501Z,100.00
2022-08-26T22:16:36.210Z,100.00
2022-08-26T22:19:39.134Z,100.00
2022-08-26T22:22:47.948Z,100.00
2022-08-26T22:25:50.139Z,100.00
2022-08-26T22:28:52.593Z,100.00
2022-08-26T22:32:01.788Z,100.00
2022-08-26T22:35:03.917Z,100.00
2022-08-26T22:38:25.785Z,100.00
2022-08-26T22:41:27.254Z,100.00
2022-08-26T22:44:28.789Z,100.00
2022-08-26T22:47:30.271Z,100.00
2022-08-26T22:50:32.074Z,100.00
2022-08-26T22:53:35.217Z,100.00
2022-08-26T22:56:38.729Z,100.00
2022-08-26T22:59:40.797Z,100.00
2022-08-26T23:02:43.881Z,100.00
2022-08-26T23:05:45.770Z,100.00
2022-08-26T23:08:47.424Z,100.00
2022-08-26T23:11:49.281Z,100.00
2022-08-26T23:14:50.704Z,100.00
2022-08-26T23:17:58.852Z,100.00
2022-08-26T23:21:00.885Z,100.00
2022-08-26T23:24:02.522Z,100.00
2022-08-26T23:27:04.652Z,100.00
2022-08-26T23:30:09.742Z,100.00
2022-08-26T23:33:11.168Z,100.00
2022-08-26T23:36:17.048Z,100.00
2022-08-26T23:39:20.053Z,100.00
2022-08-26T23:42:22.752Z,100.00
2022-08-26T23:45:26.146Z,100.00
2022-08-26T23:48:27.609Z,100.00
2022-08-26T23:51:47.548Z,100.00
2022-08-26T23:54:49.749Z,100.00
2022-08-26T23:57:51.156Z,100.00
